Time;durP1;ratioP1;P1;durP2;ratioP2;P2;SDS_P1;SDS_P2;PMS_P1;PMS_P2;Temp;Humidity;BMP_temperature;BMP_pressure;BME280_temperature;BME280_humidity;BME280_pressure;Samples;Min_cycle;Max_cycle;Signal;HPM_P1;HPM_P2
2022/01/15 00:00:54;;;;;;;2.88;1.60;;;23.30;32.60;;;;;;5024695;28;20104;-43
2022/01/15 00:03:19;;;;;;;3.40;1.95;;;23.20;32.60;;;;;;5006361;28;20084;-44
2022/01/15 00:05:45;;;;;;;2.95;1.85;;;23.20;32.60;;;;;;5004998;28;20030;-44
2022/01/15 00:08:11;;;;;;;3.92;2.05;;;23.20;32.60;;;;;;5004482;28;20026;-44
2022/01/15 00:10:37;;;;;;;3.53;2.00;;;23.20;32.50;;;;;;5005196;28;20651;-44
2022/01/15 00:13:03;;;;;;;3.60;1.90;;;23.20;32.50;;;;;;5012290;28;20053;-44
2022/01/15 00:15:34;;;;;;;4.20;2.28;;;23.10;32.60;;;;;;5024010;28;20057;-43
2022/01/15 00:20:26;;;;;;;3.78;2.00;;;23.10;32.50;;;;;;5024711;28;20493;-43
2022/01/15 00:22:54;;;;;;;3.40;2.00;;;23.10;32.50;;;;;;5025556;28;20033;-44
2022/01/15 00:25:22;;;;;;;3.63;2.08;;;23.10;32.50;;;;;;5025183;28;20036;-44
2022/01/15 00:27:48;;;;;;;3.78;2.03;;;23.10;32.60;;;;;;5024035;28;20481;-43
2022/01/15 00:30:15;;;;;;;3.65;2.05;;;23.00;32.40;;;;;;5024551;28;20031;-44
2022/01/15 00:32:41;;;;;;;3.50;1.92;;;23.00;32.40;;;;;;5012396;28;20549;-44
2022/01/15 00:35:08;;;;;;;3.20;1.85;;;23.00;32.40;;;;;;5003744;28;20034;-44
2022/01/15 00:37:34;;;;;;;2.70;1.65;;;23.00;32.40;;;;;;5010997;28;20022;-44
2022/01/15 00:40:03;;;;;;;3.53;1.98;;;23.00;32.40;;;;;;5024506;28;20033;-44
2022/01/15 00:42:31;;;;;;;3.47;2.20;;;23.00;32.40;;;;;;5024822;28;20028;-44
2022/01/15 00:44:58;;;;;;;3.35;1.80;;;23.00;32.40;;;;;;5025199;28;20521;-44
2022/01/15 00:47:25;;;;;;;3.75;2.13;;;23.00;32.40;;;;;;5014201;28;20026;-44
2022/01/15 00:49:52;;;;;;;4.15;2.35;;;23.00;32.40;;;;;;5004843;28;20026;-44
2022/01/15 00:52:17;;;;;;;2.80;1.60;;;23.00;32.50;;;;;;5021439;28;20711;-44
2022/01/15 00:54:43;;;;;;;3.30;1.90;;;23.00;32.50;;;;;;5024599;28;20026;-43
2022/01/15 00:57:09;;;;;;;3.42;1.92;;;22.90;32.40;;;;;;5024429;28;20102;-44
2022/01/15 00:59:35;;;;;;;3.35;1.80;;;22.90;32.40;;;;;;5023891;28;20034;-44
2022/01/15 01:02:01;;;;;;;3.65;2.13;;;22.90;32.40;;;;;;5023577;28;20029;-44
2022/01/15 01:04:26;;;;;;;2.90;1.70;;;22.90;32.40;;;;;;5024527;28;20068;-45
2022/01/15 01:06:52;;;;;;;3.70;2.00;;;22.90;32.50;;;;;;5024428;28;20672;-44
2022/01/15 01:09:19;;;;;;;3.72;1.92;;;22.90;32.50;;;;;;5024968;28;20107;-44
2022/01/15 01:11:55;;;;;;;3.25;1.65;;;22.80;32.30;;;;;;5024702;28;20741;-44
2022/01/15 01:20:10;;;;;;;3.55;1.60;;;22.80;32.30;;;;;;5004976;28;20057;-44
2022/01/15 01:22:55;;;;;;;2.75;1.55;;;22.80;32.40;;;;;;5005178;28;20463;-44
2022/01/15 01:25:23;;;;;;;2.95;1.50;;;22.80;32.30;;;;;;5006726;28;20033;-44
2022/01/15 01:27:52;;;;;;;2.53;1.42;;;22.80;32.30;;;;;;5022668;28;20105;-44
2022/01/15 01:30:30;;;;;;;3.45;1.80;;;22.80;32.40;;;;;;5024021;28;20026;-44
2022/01/15 01:33:16;;;;;;;3.17;1.65;;;22.80;33.00;;;;;;5024189;28;20029;-44
2022/01/15 01:35:46;;;;;;;2.60;1.33;;;22.80;32.40;;;;;;5023894;28;20057;-44
2022/01/15 01:38:26;;;;;;;3.17;1.48;;;22.80;32.40;;;;;;5024118;28;20033;-44
2022/01/15 01:40:52;;;;;;;3.45;2.00;;;22.80;32.40;;;;;;5016484;28;20079;-43
2022/01/15 01:45:51;;;;;;;2.80;1.50;;;22.70;32.40;;;;;;5024549;28;20486;-44
2022/01/15 01:48:17;;;;;;;2.67;1.50;;;22.70;32.50;;;;;;5023977;28;20026;-44
2022/01/15 01:50:43;;;;;;;2.53;1.40;;;22.70;33.20;;;;;;5023801;28;20028;-43
2022/01/15 01:53:09;;;;;;;2.35;1.40;;;22.70;32.50;;;;;;5024094;28;20022;-44
2022/01/15 01:55:36;;;;;;;2.83;1.60;;;22.70;32.40;;;;;;5023970;28;20649;-44
2022/01/15 01:58:03;;;;;;;3.00;1.60;;;22.70;32.50;;;;;;5024038;28;20497;-44
2022/01/15 02:00:30;;;;;;;2.97;1.58;;;22.70;32.50;;;;;;5024008;28;20112;-44
2022/01/15 02:02:57;;;;;;;2.55;1.40;;;22.60;32.40;;;;;;5010871;28;20038;-44
2022/01/15 02:05:24;;;;;;;2.70;1.73;;;22.70;32.50;;;;;;5004409;28;20056;-44
2022/01/15 02:07:50;;;;;;;2.95;1.48;;;22.70;32.40;;;;;;5004206;28;20034;-44
2022/01/15 02:10:19;;;;;;;2.90;1.50;;;22.60;32.40;;;;;;5003883;28;20110;-44
2022/01/15 02:12:46;;;;;;;2.78;1.60;;;22.60;32.40;;;;;;5003903;28;20060;-44
2022/01/15 02:15:15;;;;;;;2.75;1.50;;;22.60;32.40;;;;;;5004313;28;20034;-44
2022/01/15 02:17:43;;;;;;;2.85;1.60;;;22.60;32.40;;;;;;5013065;28;20028;-43
2022/01/15 02:25:50;;;;;;;2.95;1.42;;;22.60;32.40;;;;;;5022935;28;20177;-44
2022/01/15 02:28:18;;;;;;;3.00;1.50;;;22.60;32.40;;;;;;5024171;28;20029;-44
2022/01/15 02:30:44;;;;;;;2.45;1.30;;;22.60;32.50;;;;;;5023278;28;20481;-44
2022/01/15 02:33:10;;;;;;;3.00;1.50;;;22.60;32.50;;;;;;5022735;28;20037;-46
2022/01/15 02:35:36;;;;;;;2.22;1.30;;;22.60;32.50;;;;;;5022970;28;20034;-46
2022/01/15 02:38:04;;;;;;;3.03;1.65;;;22.60;32.50;;;;;;5022687;28;20030;-47
2022/01/15 02:40:32;;;;;;;2.70;1.40;;;22.60;32.50;;;;;;5025834;28;20035;-47
2022/01/15 02:43:03;;;;;;;2.83;1.40;;;22.60;32.50;;;;;;5027361;28;20025;-46
2022/01/15 02:45:32;;;;;;;2.28;1.20;;;22.60;32.50;;;;;;5027649;28;20065;-46
2022/01/15 02:48:19;;;;;;;2.58;1.38;;;22.60;32.40;;;;;;5014344;28;20018;-49
2022/01/15 02:50:46;;;;;;;3.13;1.40;;;22.50;33.10;;;;;;5007178;28;20101;-46
2022/01/15 02:53:14;;;;;;;3.47;1.80;;;22.60;32.50;;;;;;5007063;28;20037;-46
2022/01/15 02:55:44;;;;;;;2.95;1.40;;;22.50;32.50;;;;;;5012700;28;20040;-47
2022/01/15 02:58:11;;;;;;;2.42;1.20;;;22.50;32.50;;;;;;5025694;28;20037;-46
2022/01/15 03:00:38;;;;;;;2.33;1.30;;;22.50;32.50;;;;;;5026581;28;20069;-46
2022/01/15 03:03:04;;;;;;;3.10;1.70;;;22.50;32.50;;;;;;5025740;28;20083;-46
2022/01/15 03:05:30;;;;;;;2.15;1.20;;;22.50;32.50;;;;;;5026182;28;20033;-47
2022/01/15 03:07:55;;;;;;;2.75;1.42;;;22.50;32.50;;;;;;5025097;28;20091;-46
2022/01/15 03:10:21;;;;;;;2.72;1.50;;;22.50;32.50;;;;;;5026130;28;20060;-46
2022/01/15 03:12:47;;;;;;;2.35;1.30;;;22.50;33.10;;;;;;5026682;28;20047;-46
2022/01/15 03:15:19;;;;;;;2.67;1.35;;;22.50;32.50;;;;;;5026044;28;20693;-47
2022/01/15 03:17:46;;;;;;;2.75;1.45;;;22.50;32.50;;;;;;5026332;28;20498;-46
2022/01/15 03:20:13;;;;;;;2.70;1.38;;;22.50;32.50;;;;;;5026601;28;20088;-45
2022/01/15 03:22:38;;;;;;;2.28;1.20;;;22.50;32.50;;;;;;5026652;28;20025;-46
2022/01/15 03:25:05;;;;;;;2.85;1.30;;;22.50;32.70;;;;;;5026888;28;20481;-47
2022/01/15 03:27:31;;;;;;;2.40;1.27;;;22.50;32.60;;;;;;5026504;28;20029;-47
2022/01/15 03:29:56;;;;;;;2.35;1.15;;;22.40;32.50;;;;;;5026035;28;20099;-46
2022/01/15 03:32:22;;;;;;;2.05;1.10;;;22.40;32.50;;;;;;5019673;28;20049;-48
2022/01/15 03:34:49;;;;;;;2.58;1.38;;;22.40;32.50;;;;;;5007067;28;20026;-46
2022/01/15 03:37:15;;;;;;;2.67;1.48;;;22.40;32.50;;;;;;5009978;28;20056;-47
2022/01/15 03:39:41;;;;;;;2.80;1.50;;;22.40;32.60;;;;;;5026416;28;20029;-49
2022/01/15 03:42:13;;;;;;;2.03;1.20;;;22.40;32.70;;;;;;5026508;28;20121;-47
2022/01/15 03:44:46;;;;;;;2.33;1.42;;;22.40;32.70;;;;;;5026480;28;20025;-47
2022/01/15 03:47:13;;;;;;;2.38;1.25;;;22.40;32.70;;;;;;5020266;28;20049;-48
2022/01/15 03:49:40;;;;;;;2.33;1.13;;;22.40;32.70;;;;;;5006031;28;20057;-48
2022/01/15 03:52:07;;;;;;;2.63;1.38;;;22.40;32.60;;;;;;5004926;28;20397;-48
2022/01/15 03:54:33;;;;;;;2.13;1.10;;;22.40;32.60;;;;;;5006122;28;20105;-45
2022/01/15 03:56:59;;;;;;;2.45;1.30;;;22.40;32.60;;;;;;5022491;28;20025;-46
2022/01/15 03:59:25;;;;;;;1.92;0.90;;;22.40;32.50;;;;;;5025934;28;20095;-46
2022/01/15 04:01:51;;;;;;;2.70;1.38;;;22.40;32.50;;;;;;5023097;28;20095;-46
2022/01/15 04:04:18;;;;;;;2.63;1.48;;;22.40;32.50;;;;;;5006002;28;20065;-46
2022/01/15 04:06:44;;;;;;;2.38;1.45;;;22.30;32.50;;;;;;5005321;28;20037;-47
2022/01/15 04:09:11;;;;;;;2.35;1.30;;;22.40;32.60;;;;;;5005378;28;20060;-47
2022/01/15 04:11:37;;;;;;;2.13;1.10;;;22.30;32.60;;;;;;5006072;28;20693;-46
2022/01/15 04:14:03;;;;;;;2.78;1.30;;;22.30;32.60;;;;;;5005959;28;20022;-45
2022/01/15 04:16:29;;;;;;;2.08;1.00;;;22.30;32.60;;;;;;5005944;28;20034;-46
2022/01/15 04:18:59;;;;;;;2.40;1.20;;;22.30;32.50;;;;;;5023514;28;20696;-48
2022/01/15 04:21:26;;;;;;;2.15;1.35;;;22.30;32.50;;;;;;5025438;28;20030;-47
2022/01/15 04:23:52;;;;;;;1.80;1.23;;;22.30;33.30;;;;;;5025456;28;20025;-47
2022/01/15 04:26:23;;;;;;;2.42;1.35;;;22.30;32.60;;;;;;5025491;28;20112;-46
2022/01/15 04:28:49;;;;;;;2.60;1.30;;;22.30;32.60;;;;;;5025070;28;20075;-47
2022/01/15 04:31:17;;;;;;;2.13;1.15;;;22.30;32.70;;;;;;5025182;28;20021;-47
2022/01/15 04:33:43;;;;;;;2.22;1.30;;;22.30;32.60;;;;;;5008815;28;20034;-47
2022/01/15 04:36:12;;;;;;;2.55;1.40;;;22.30;32.70;;;;;;5005557;28;20143;-47
2022/01/15 04:38:39;;;;;;;2.97;1.42;;;22.30;32.70;;;;;;5020010;28;20132;-46
2022/01/15 04:41:07;;;;;;;2.25;1.20;;;22.30;32.70;;;;;;5024937;28;20041;-46
2022/01/15 04:43:33;;;;;;;2.47;1.38;;;22.30;32.70;;;;;;5025505;28;20025;-48
2022/01/15 04:45:59;;;;;;;2.55;1.40;;;22.30;32.70;;;;;;5025526;28;20048;-46
2022/01/15 04:48:25;;;;;;;2.30;1.00;;;22.20;32.60;;;;;;5011561;28;20068;-47
2022/01/15 04:50:50;;;;;;;2.60;1.20;;;22.20;32.60;;;;;;5004883;28;20069;-46
2022/01/15 04:53:16;;;;;;;2.22;1.23;;;22.20;32.60;;;;;;5005133;28;20030;-46
2022/01/15 04:55:42;;;;;;;2.60;1.40;;;22.20;32.60;;;;;;5011271;28;20033;-47
2022/01/15 04:58:09;;;;;;;2.67;1.30;;;22.20;32.60;;;;;;5024838;28;20029;-46
2022/01/15 05:00:36;;;;;;;2.47;1.23;;;22.20;32.60;;;;;;5025051;28;20029;-47
2022/01/15 05:03:02;;;;;;;2.35;1.20;;;22.20;32.60;;;;;;5014341;28;20698;-48
2022/01/15 05:05:28;;;;;;;2.38;1.30;;;22.20;32.60;;;;;;5005067;28;20037;-45
2022/01/15 05:07:55;;;;;;;2.13;1.30;;;22.20;32.60;;;;;;5005297;28;20065;-46
2022/01/15 05:10:26;;;;;;;2.70;1.50;;;22.10;32.60;;;;;;5004373;28;20041;-46
2022/01/15 05:12:55;;;;;;;2.60;1.25;;;22.10;32.70;;;;;;5005141;28;20061;-47
2022/01/15 05:15:22;;;;;;;2.30;1.15;;;22.10;32.70;;;;;;5004653;28;20037;-47
2022/01/15 05:17:48;;;;;;;2.22;1.10;;;22.10;32.70;;;;;;5004699;28;20150;-47
2022/01/15 05:20:17;;;;;;;2.35;1.42;;;22.20;32.70;;;;;;5004356;28;20018;-47
2022/01/15 05:22:44;;;;;;;2.15;1.00;;;22.10;32.70;;;;;;5004961;28;20061;-46
2022/01/15 05:25:13;;;;;;;2.45;1.27;;;22.10;32.70;;;;;;5006443;28;20044;-46
2022/01/15 05:27:39;;;;;;;2.78;1.45;;;22.20;32.70;;;;;;5024625;28;20025;-47
2022/01/15 05:30:06;;;;;;;2.75;1.17;;;22.10;32.60;;;;;;5024600;28;20617;-48
2022/01/15 05:32:32;;;;;;;2.35;1.27;;;22.10;32.80;;;;;;5018763;28;20065;-48
2022/01/15 05:34:57;;;;;;;1.80;0.95;;;22.10;32.70;;;;;;5005053;28;20486;-47
2022/01/15 05:37:24;;;;;;;2.08;1.13;;;22.10;32.70;;;;;;5008467;28;20029;-46
2022/01/15 05:39:50;;;;;;;2.08;1.30;;;22.10;32.70;;;;;;5024647;28;20041;-46
2022/01/15 05:42:16;;;;;;;2.80;1.40;;;22.10;32.60;;;;;;5024319;28;20033;-47
2022/01/15 05:44:42;;;;;;;2.55;0.95;;;22.10;32.70;;;;;;5024608;28;20029;-48
2022/01/15 05:47:08;;;;;;;2.50;1.48;;;22.10;32.70;;;;;;5022522;28;20482;-48
2022/01/15 05:49:35;;;;;;;2.22;1.30;;;22.00;32.60;;;;;;5004842;28;20496;-46
2022/01/15 05:52:01;;;;;;;1.92;0.90;;;22.10;32.70;;;;;;5004411;28;20606;-46
2022/01/15 05:54:26;;;;;;;2.20;1.02;;;22.00;32.70;;;;;;5004664;28;20037;-46
2022/01/15 05:56:52;;;;;;;2.17;1.13;;;22.00;32.60;;;;;;5020267;28;20033;-47
2022/01/15 05:59:18;;;;;;;2.65;1.45;;;22.00;32.70;;;;;;5024188;28;20068;-47
2022/01/15 06:01:44;;;;;;;2.13;1.10;;;22.00;32.70;;;;;;5023061;28;20549;-46
2022/01/15 06:04:10;;;;;;;2.72;1.30;;;22.00;32.70;;;;;;5005448;28;20989;-46
2022/01/15 06:06:35;;;;;;;2.30;1.20;;;22.00;32.70;;;;;;5003247;28;20139;-46
2022/01/15 06:09:03;;;;;;;2.13;1.13;;;22.00;32.70;;;;;;5004022;28;20029;-47
2022/01/15 06:11:29;;;;;;;2.45;1.25;;;22.00;32.80;;;;;;5003568;28;20029;-45
2022/01/15 06:13:55;;;;;;;1.73;0.82;;;22.00;33.00;;;;;;5002962;28;20057;-46
2022/01/15 06:16:22;;;;;;;2.25;1.20;;;22.00;33.10;;;;;;5007728;28;20033;-47
2022/01/15 06:18:49;;;;;;;2.60;1.48;;;22.00;33.10;;;;;;5022479;28;20044;-48
2022/01/15 06:21:15;;;;;;;2.30;1.30;;;22.00;33.20;;;;;;5026824;28;20029;-45
2022/01/15 06:23:41;;;;;;;2.40;1.23;;;22.00;33.20;;;;;;5027381;28;20021;-46
2022/01/15 06:26:07;;;;;;;2.40;1.20;;;22.00;33.30;;;;;;5027130;28;20040;-45
2022/01/15 06:28:33;;;;;;;1.90;1.00;;;22.00;33.40;;;;;;5026917;28;20037;-46
2022/01/15 06:30:59;;;;;;;2.50;1.20;;;22.00;33.40;;;;;;5026480;28;20030;-47
2022/01/15 06:33:25;;;;;;;2.28;1.10;;;22.10;33.40;;;;;;5014954;28;20722;-48
2022/01/15 06:35:50;;;;;;;2.65;1.15;;;22.10;33.40;;;;;;5006299;28;20069;-47
2022/01/15 06:38:16;;;;;;;2.40;1.17;;;22.10;33.40;;;;;;5015793;28;20134;-45
2022/01/15 06:40:42;;;;;;;2.13;1.10;;;22.20;33.40;;;;;;5025629;28;20391;-46
2022/01/15 06:43:08;;;;;;;2.58;1.00;;;22.30;33.50;;;;;;5026059;28;20033;-46
2022/01/15 06:45:34;;;;;;;1.60;0.80;;;22.30;33.50;;;;;;5026042;28;20072;-48
2022/01/15 06:48:01;;;;;;;2.67;1.40;;;22.40;33.40;;;;;;5022399;28;20067;-46
2022/01/15 06:50:28;;;;;;;2.65;1.30;;;22.50;33.50;;;;;;5025132;28;20091;-46
2022/01/15 06:52:54;;;;;;;2.53;1.20;;;22.50;33.40;;;;;;5025089;28;20104;-46
2022/01/15 06:55:20;;;;;;;2.53;1.13;;;22.60;33.30;;;;;;5025754;28;20025;-46
2022/01/15 06:57:47;;;;;;;2.42;1.30;;;22.70;33.30;;;;;;5025250;28;20100;-48
2022/01/15 07:00:14;;;;;;;2.40;1.10;;;22.80;33.20;;;;;;5024089;28;20087;-47
2022/01/15 07:02:41;;;;;;;2.22;1.00;;;22.80;33.10;;;;;;5019373;28;20033;-47
2022/01/15 07:05:07;;;;;;;2.10;1.10;;;22.90;33.20;;;;;;5024656;28;20370;-48
2022/01/15 07:07:34;;;;;;;3.20;1.25;;;23.00;33.30;;;;;;5025215;28;20024;-46
2022/01/15 07:10:00;;;;;;;2.30;0.90;;;23.00;33.20;;;;;;5025570;28;20022;-47
2022/01/15 07:12:26;;;;;;;2.05;0.93;;;23.10;33.50;;;;;;5024974;28;20056;-48
2022/01/15 07:14:52;;;;;;;3.38;1.30;;;23.20;33.60;;;;;;5025101;28;20040;-48
2022/01/15 07:17:18;;;;;;;3.28;1.30;;;23.20;33.70;;;;;;5022157;28;20080;-47
2022/01/15 07:19:43;;;;;;;2.50;1.45;;;23.30;33.80;;;;;;5024794;28;20028;-47
2022/01/15 07:22:10;;;;;;;2.92;1.60;;;23.40;34.20;;;;;;5024770;28;20279;-46
2022/01/15 07:24:36;;;;;;;4.78;1.63;;;23.40;34.00;;;;;;5024791;28;20140;-49
2022/01/15 07:27:03;;;;;;;2.95;1.50;;;23.50;33.90;;;;;;5022674;28;20116;-47
2022/01/15 07:29:30;;;;;;;4.13;1.50;;;23.60;33.40;;;;;;5025365;28;20029;-45
2022/01/15 07:31:56;;;;;;;4.07;1.50;;;23.60;33.70;;;;;;5025210;28;20575;-50
2022/01/15 07:34:22;;;;;;;3.28;1.60;;;23.70;34.00;;;;;;5014633;28;20025;-46
2022/01/15 07:36:53;;;;;;;3.80;1.58;;;23.70;33.90;;;;;;5020390;28;20040;-45
2022/01/15 07:39:19;;;;;;;4.20;1.60;;;23.80;33.60;;;;;;5019857;28;20094;-47
2022/01/15 07:41:45;;;;;;;3.28;1.40;;;23.80;33.60;;;;;;5024720;28;20067;-47
2022/01/15 07:44:10;;;;;;;4.15;1.52;;;23.90;33.50;;;;;;5017845;28;20834;-48
2022/01/15 07:46:37;;;;;;;2.90;1.27;;;23.90;33.40;;;;;;5024403;28;20048;-47
2022/01/15 07:49:03;;;;;;;3.47;1.65;;;24.00;33.30;;;;;;5023223;28;20087;-47
2022/01/15 07:51:29;;;;;;;3.85;1.48;;;24.00;33.10;;;;;;5023695;28;20029;-48
2022/01/15 07:53:55;;;;;;;3.08;1.55;;;24.00;33.00;;;;;;5024689;28;20041;-48
2022/01/15 07:56:21;;;;;;;4.65;1.88;;;24.10;32.90;;;;;;5024341;28;20059;-47
2022/01/15 07:58:47;;;;;;;5.55;2.25;;;24.10;32.60;;;;;;5023486;28;20036;-46
2022/01/15 08:01:13;;;;;;;6.55;1.65;;;24.10;32.50;;;;;;5023953;28;20032;-49
2022/01/15 08:03:39;;;;;;;5.47;2.10;;;24.20;33.10;;;;;;5024169;28;20645;-48
2022/01/15 08:06:08;;;;;;;7.70;2.33;;;24.20;33.40;;;;;;5022917;28;20030;-47
2022/01/15 08:08:34;;;;;;;5.82;2.22;;;24.20;33.30;;;;;;5024844;28;20437;-47
2022/01/15 08:11:00;;;;;;;7.40;2.40;;;24.30;33.20;;;;;;5022794;28;20029;-47
2022/01/15 08:13:26;;;;;;;5.22;2.20;;;24.30;33.30;;;;;;5024768;28;20021;-48
2022/01/15 08:15:52;;;;;;;6.88;2.50;;;24.30;33.10;;;;;;5024481;28;20025;-48
2022/01/15 08:18:21;;;;;;;6.72;2.60;;;24.40;33.10;;;;;;5023301;28;20477;-47
2022/01/15 08:20:47;;;;;;;3.75;1.75;;;24.40;33.70;;;;;;5023761;28;20477;-47
2022/01/15 08:23:13;;;;;;;3.80;2.10;;;24.50;33.00;;;;;;5023722;28;20151;-47
2022/01/15 08:25:39;;;;;;;6.18;2.33;;;24.50;33.00;;;;;;5019724;28;20120;-47
2022/01/15 08:28:05;;;;;;;5.60;1.60;;;24.50;33.00;;;;;;5023126;28;20036;-48
2022/01/15 08:30:31;;;;;;;5.65;2.00;;;24.60;33.00;;;;;;5023737;28;20030;-47
2022/01/15 08:32:57;;;;;;;5.78;2.10;;;24.60;32.90;;;;;;5022514;28;20097;-49
2022/01/15 08:35:22;;;;;;;8.23;2.53;;;24.70;33.00;;;;;;5024308;28;20025;-47
2022/01/15 08:37:49;;;;;;;5.97;2.00;;;24.70;33.00;;;;;;5023840;28;20041;-47
2022/01/15 08:40:17;;;;;;;6.32;2.22;;;24.70;33.00;;;;;;5023637;28;20013;-46
2022/01/15 08:42:43;;;;;;;7.03;2.53;;;24.80;33.00;;;;;;5022421;28;20149;-47
2022/01/15 08:45:10;;;;;;;5.22;2.40;;;24.80;33.10;;;;;;5020470;28;20061;-48
2022/01/15 08:47:36;;;;;;;6.80;2.70;;;24.90;33.30;;;;;;5023581;28;20108;-47
2022/01/15 08:50:03;;;;;;;8.30;2.90;;;24.90;33.70;;;;;;5023885;28;20017;-49
2022/01/15 08:52:29;;;;;;;5.70;2.50;;;24.90;33.70;;;;;;5024032;28;20032;-46
2022/01/15 08:54:55;;;;;;;5.93;2.78;;;24.90;33.70;;;;;;5025140;28;20021;-46
2022/01/15 08:57:20;;;;;;;7.82;2.85;;;25.00;33.60;;;;;;5024742;28;20041;-47
2022/01/15 08:59:46;;;;;;;6.45;2.33;;;25.00;33.50;;;;;;5024630;28;20025;-45
2022/01/15 09:02:12;;;;;;;9.70;3.30;;;25.00;33.50;;;;;;5023679;28;20037;-48
2022/01/15 09:04:38;;;;;;;7.03;2.90;;;25.10;33.20;;;;;;5023099;28;20104;-46
2022/01/15 09:07:04;;;;;;;9.00;2.72;;;25.10;33.00;;;;;;5023470;28;20022;-47
2022/01/15 09:09:29;;;;;;;9.50;3.80;;;25.10;32.90;;;;;;5022473;28;20109;-47
2022/01/15 09:11:55;;;;;;;8.80;2.80;;;25.10;32.60;;;;;;5022605;28;20067;-45
2022/01/15 09:14:21;;;;;;;6.78;2.88;;;25.20;32.40;;;;;;5023183;28;20029;-45
2022/01/15 09:16:46;;;;;;;6.72;3.25;;;25.20;32.20;;;;;;5023736;28;20370;-45
2022/01/15 09:19:12;;;;;;;9.20;3.22;;;25.20;32.20;;;;;;5009102;28;20029;-45
2022/01/15 09:21:38;;;;;;;7.72;3.20;;;25.20;32.10;;;;;;5018709;28;20088;-45
2022/01/15 09:24:04;;;;;;;14.23;4.20;;;25.20;31.90;;;;;;5023215;28;20013;-44
2022/01/15 09:32:03;;;;;;;6.90;3.22;;;25.30;31.60;;;;;;5022453;28;20152;-45
2022/01/15 09:34:29;;;;;;;7.70;3.63;;;25.30;31.70;;;;;;5023210;28;20021;-45
2022/01/15 09:36:55;;;;;;;11.35;3.85;;;25.30;31.90;;;;;;5023205;28;20045;-45
2022/01/15 09:39:20;;;;;;;12.07;4.68;;;25.30;32.00;;;;;;5021890;28;20036;-45
2022/01/15 09:41:48;;;;;;;8.70;3.50;;;25.30;32.50;;;;;;5022599;28;20562;-45
2022/01/15 09:44:17;;;;;;;8.98;3.42;;;25.30;32.80;;;;;;5023378;28;20030;-44
2022/01/15 09:46:45;;;;;;;10.40;3.85;;;25.40;33.00;;;;;;5022620;28;20026;-45
2022/01/15 09:49:14;;;;;;;7.93;3.80;;;25.40;33.20;;;;;;5022852;28;20095;-45
2022/01/15 09:51:40;;;;;;;9.68;3.95;;;25.40;33.40;;;;;;5027126;28;20037;-45
2022/01/15 09:54:06;;;;;;;8.55;3.42;;;25.40;33.70;;;;;;5027447;28;20084;-45
2022/01/15 09:56:32;;;;;;;6.75;3.42;;;25.40;33.80;;;;;;5027417;28;20132;-45
2022/01/15 09:59:00;;;;;;;7.30;3.50;;;25.40;33.90;;;;;;5026845;28;20374;-45
2022/01/15 10:01:32;;;;;;;12.55;3.92;;;25.40;34.10;;;;;;5026966;28;20044;-45
2022/01/15 10:03:59;;;;;;;9.05;3.63;;;25.40;34.40;;;;;;5015501;28;20141;-44
2022/01/15 10:06:25;;;;;;;8.02;3.70;;;25.40;34.30;;;;;;5026894;28;20116;-45
2022/01/15 10:09:04;;;;;;;12.07;4.65;;;25.40;34.10;;;;;;5027763;28;20029;-45
2022/01/15 10:11:41;;;;;;;13.23;4.32;;;25.40;34.20;;;;;;5027277;28;20268;-45
2022/01/15 10:14:29;;;;;;;15.90;5.38;;;25.50;34.50;;;;;;5026007;28;20448;-45
2022/01/15 10:16:57;;;;;;;15.48;5.18;;;25.40;34.70;;;;;;5027422;28;20191;-44
2022/01/15 10:19:35;;;;;;;11.43;4.70;;;25.50;34.70;;;;;;5015224;28;20026;-45
2022/01/15 10:22:11;;;;;;;11.15;3.92;;;25.50;34.80;;;;;;5009276;28;20037;-45
2022/01/15 10:24:42;;;;;;;10.40;4.18;;;25.50;34.80;;;;;;5017265;28;20349;-45
2022/01/15 10:27:41;;;;;;;13.48;4.47;;;25.50;34.90;;;;;;5019465;28;20025;-44
2022/01/15 10:30:16;;;;;;;16.83;4.95;;;25.50;34.70;;;;;;4982581;28;20133;-44
2022/01/15 10:33:02;;;;;;;12.10;4.32;;;25.50;34.60;;;;;;5011859;28;20032;-45
2022/01/15 10:35:33;;;;;;;18.77;5.03;;;25.50;34.50;;;;;;5006270;28;20026;-45
2022/01/15 10:38:08;;;;;;;12.77;4.15;;;25.50;34.70;;;;;;5005650;28;20145;-45
2022/01/15 10:40:43;;;;;;;12.98;4.28;;;25.50;35.10;;;;;;5005582;28;20033;-45
2022/01/15 10:43:10;;;;;;;9.05;3.60;;;25.50;35.20;;;;;;5006296;28;20830;-45
2022/01/15 10:45:47;;;;;;;27.23;18.30;;;25.50;34.90;;;;;;5014130;28;20029;-44
2022/01/15 10:48:27;;;;;;;123.60;94.05;;;25.50;34.80;;;;;;5020280;28;20030;-44
2022/01/15 10:50:57;;;;;;;217.38;161.25;;;25.50;34.90;;;;;;5005568;28;20030;-44
2022/01/15 10:53:55;;;;;;;322.63;233.88;;;25.50;34.80;;;;;;5024516;28;20107;-45
2022/01/15 10:56:21;;;;;;;402.63;278.23;;;25.50;35.10;;;;;;5025498;28;20033;-44
2022/01/15 10:58:46;;;;;;;493.02;340.02;;;25.50;35.30;;;;;;5024087;28;20021;-44
2022/01/15 11:01:13;;;;;;;537.95;373.02;;;25.50;35.50;;;;;;5012955;28;20028;-44
2022/01/15 11:03:44;;;;;;;484.15;325.80;;;25.50;36.20;;;;;;5017622;28;20248;-45
2022/01/15 11:06:10;;;;;;;434.83;276.05;;;25.50;36.80;;;;;;5024341;28;20038;-45
2022/01/15 11:08:38;;;;;;;385.08;245.73;;;25.50;37.60;;;;;;5024924;28;20033;-45
2022/01/15 11:11:09;;;;;;;392.40;250.75;;;25.50;36.40;;;;;;5025027;28;20108;-46
2022/01/15 11:13:45;;;;;;;387.30;251.65;;;25.60;36.90;;;;;;5024964;28;20021;-46
2022/01/15 11:16:16;;;;;;;386.88;249.57;;;25.60;38.40;;;;;;5024234;28;20566;-49
2022/01/15 11:18:43;;;;;;;374.70;248.35;;;25.60;40.80;;;;;;5023373;28;20555;-49
2022/01/15 11:21:18;;;;;;;370.35;239.40;;;25.60;38.50;;;;;;5024845;28;20087;-49
2022/01/15 11:23:45;;;;;;;351.40;223.50;;;25.70;39.30;;;;;;5023956;28;20044;-51
2022/01/15 11:26:24;;;;;;;334.08;219.48;;;25.70;38.80;;;;;;5023039;28;20032;-50
2022/01/15 11:28:51;;;;;;;314.00;209.80;;;25.80;39.60;;;;;;5023756;28;20025;-49
2022/01/15 11:31:23;;;;;;;301.08;196.15;;;25.80;39.90;;;;;;5024398;28;20025;-49
2022/01/15 11:33:55;;;;;;;283.23;186.77;;;25.80;39.90;;;;;;5022952;28;20481;-50
2022/01/15 11:36:40;;;;;;;260.05;168.73;;;25.80;40.00;;;;;;5021854;28;20033;-51
2022/01/15 11:39:10;;;;;;;269.23;167.35;;;25.80;39.70;;;;;;5022889;28;20035;-49
2022/01/15 11:41:37;;;;;;;243.57;154.65;;;25.80;39.80;;;;;;5023613;28;20021;-51
2022/01/15 11:44:08;;;;;;;245.98;150.65;;;25.80;39.60;;;;;;5024739;28;20025;-48
2022/01/15 11:46:43;;;;;;;229.80;145.05;;;25.70;39.60;;;;;;5024902;28;20029;-48
2022/01/15 11:49:24;;;;;;;209.43;132.60;;;25.70;39.20;;;;;;5023219;28;20538;-50
2022/01/15 11:51:50;;;;;;;275.77;180.45;;;25.80;38.90;;;;;;5024383;28;20559;-49
2022/01/15 11:54:16;;;;;;;478.27;312.45;;;25.70;38.70;;;;;;5022896;28;20061;-50
2022/01/15 11:56:42;;;;;;;895.65;556.05;;;25.80;38.60;;;;;;5021944;28;20714;-48
2022/01/15 11:59:26;;;;;;;972.00;592.03;;;25.80;38.60;;;;;;5024227;28;20034;-48
2022/01/15 12:02:14;;;;;;;947.30;578.20;;;25.70;38.40;;;;;;5017914;28;20544;-50
2022/01/15 12:04:41;;;;;;;966.72;580.47;;;25.80;38.20;;;;;;5020992;28;20107;-51
2022/01/15 12:07:06;;;;;;;992.08;589.90;;;25.80;38.00;;;;;;5024369;28;20501;-50
2022/01/15 12:09:40;;;;;;;1006.80;591.75;;;25.70;37.80;;;;;;5023268;28;20068;-48
2022/01/15 12:12:25;;;;;;;965.45;577.35;;;25.70;37.80;;;;;;5021852;28;20527;-50
2022/01/15 12:15:00;;;;;;;931.63;559.63;;;25.70;37.60;;;;;;5024685;28;20018;-50
2022/01/15 12:17:36;;;;;;;881.88;524.40;;;25.70;37.50;;;;;;5022576;28;20029;-50
2022/01/15 12:20:27;;;;;;;768.28;474.33;;;25.70;37.00;;;;;;5020600;28;20033;-49
2022/01/15 12:22:59;;;;;;;627.63;383.60;;;25.70;37.20;;;;;;5022786;28;20571;-51
2022/01/15 12:25:25;;;;;;;557.95;333.05;;;25.60;37.00;;;;;;5022742;28;20033;-51
2022/01/15 12:28:05;;;;;;;446.73;260.83;;;25.60;36.10;;;;;;5022857;28;20088;-49
2022/01/15 12:30:36;;;;;;;353.20;195.25;;;25.60;35.30;;;;;;5022153;28;20389;-51
2022/01/15 12:33:04;;;;;;;266.67;148.55;;;25.60;34.70;;;;;;5021375;28;20018;-51
2022/01/15 12:35:32;;;;;;;216.30;124.18;;;25.60;34.40;;;;;;5023144;28;20025;-50
2022/01/15 12:38:11;;;;;;;199.90;113.55;;;25.50;33.80;;;;;;5021374;28;20405;-50
2022/01/15 12:40:50;;;;;;;173.05;98.05;;;25.50;33.70;;;;;;5019583;28;20392;-49
2022/01/15 12:43:28;;;;;;;146.38;84.78;;;25.50;33.70;;;;;;5018415;28;20018;-50
2022/01/15 12:45:57;;;;;;;136.95;78.72;;;25.40;33.20;;;;;;5020442;28;20026;-49
2022/01/15 12:48:25;;;;;;;128.75;74.63;;;25.40;33.10;;;;;;5019964;28;20397;-51
2022/01/15 12:50:58;;;;;;;125.32;71.00;;;25.40;32.70;;;;;;5020279;28;20400;-50
2022/01/15 12:53:27;;;;;;;115.93;67.80;;;25.40;32.70;;;;;;5019168;28;20018;-51
2022/01/15 12:55:53;;;;;;;102.43;62.05;;;25.40;32.40;;;;;;5019279;28;20025;-51
2022/01/15 12:58:22;;;;;;;94.82;55.65;;;25.30;32.70;;;;;;5019816;28;20029;-49
2022/01/15 13:00:48;;;;;;;86.65;50.00;;;25.30;33.30;;;;;;5019618;28;20029;-49
2022/01/15 13:03:20;;;;;;;73.32;44.85;;;25.30;33.30;;;;;;5019345;28;20064;-49
2022/01/15 13:05:55;;;;;;;70.73;41.57;;;25.30;33.00;;;;;;5023665;28;20044;-50
2022/01/15 13:08:28;;;;;;;68.65;38.13;;;25.30;32.60;;;;;;5024024;28;20263;-51